createdAt,value
2023-01-13T00:01:15.152Z,71.38
2023-01-13T00:03:42.069Z,71.43
2023-01-13T00:06:12.422Z,71.57
2023-01-13T00:08:39.020Z,71.34
2023-01-13T00:11:05.718Z,71.37
2023-01-13T00:13:35.129Z,71.38
2023-01-13T00:16:07.163Z,71.06
2023-01-13T00:18:36.756Z,71.83
2023-01-13T00:21:12.560Z,71.86
2023-01-13T00:23:39.982Z,72.28
2023-01-13T00:26:12.949Z,72.53
2023-01-13T00:28:39.635Z,72.62
2023-01-13T00:31:25.724Z,72.26
2023-01-13T00:33:53.221Z,71.14
2023-01-13T00:36:20.809Z,70.81
2023-01-13T00:38:47.776Z,69.98
2023-01-13T00:41:25.574Z,69.57
2023-01-13T00:43:52.221Z,70.19
2023-01-13T00:46:21.121Z,70.26
2023-01-13T00:48:48.196Z,69.56
2023-01-13T00:51:17.755Z,69.72
2023-01-13T00:53:46.882Z,70.02
2023-01-13T00:56:16.873Z,67.86
2023-01-13T00:58:46.044Z,68.54
2023-01-13T01:01:16.360Z,68.15
2023-01-13T01:03:43.025Z,69.09
2023-01-13T01:06:14.615Z,70.34
2023-01-13T01:08:41.864Z,69.32
2023-01-13T01:11:11.118Z,69.53
2023-01-13T01:13:38.511Z,70.26
2023-01-13T01:16:11.170Z,70.88
2023-01-13T01:18:40.407Z,70.56
2023-01-13T01:21:08.017Z,70.43
2023-01-13T01:23:36.419Z,69.50
2023-01-13T01:26:04.384Z,69.06
2023-01-13T01:28:30.962Z,70.02
2023-01-13T01:31:00.145Z,70.28
2023-01-13T01:33:26.753Z,71.55
2023-01-13T01:35:54.337Z,71.82
2023-01-13T01:38:23.247Z,71.47
2023-01-13T01:40:49.970Z,71.78
2023-01-13T01:43:38.154Z,71.59
2023-01-13T01:46:05.022Z,72.13
2023-01-13T01:48:37.223Z,71.89
2023-01-13T01:51:05.642Z,72.53
2023-01-13T01:53:33.248Z,72.77
2023-01-13T01:56:00.516Z,72.36
2023-01-13T01:58:49.915Z,72.10
2023-01-13T02:01:16.900Z,72.51
2023-01-13T02:03:50.304Z,73.13
2023-01-13T02:06:17.257Z,73.07
2023-01-13T02:08:44.031Z,72.88
2023-01-13T02:11:47.134Z,72.60
2023-01-13T02:14:13.966Z,72.41
2023-01-13T02:16:48.680Z,72.83
2023-01-13T02:19:50.511Z,73.21
2023-01-13T02:22:52.603Z,73.19
2023-01-13T02:25:48.552Z,71.95
2023-01-13T02:29:11.367Z,72.41
2023-01-13T02:31:43.081Z,72.24
2023-01-13T02:34:12.879Z,73.18
2023-01-13T02:36:42.898Z,72.20
2023-01-13T02:39:17.144Z,72.10
2023-01-13T02:42:32.813Z,71.60
2023-01-13T02:45:32.544Z,70.72
2023-01-13T02:48:01.732Z,71.16
2023-01-13T02:50:57.734Z,71.61
2023-01-13T02:53:34.547Z,71.00
2023-01-13T02:56:03.415Z,71.49
2023-01-13T02:58:32.584Z,72.11
2023-01-13T03:00:59.237Z,72.08
2023-01-13T03:03:25.849Z,71.39
2023-01-13T03:06:01.332Z,71.69
2023-01-13T03:09:05.802Z,70.93
2023-01-13T03:11:50.813Z,71.66
2023-01-13T03:14:27.551Z,71.44
2023-01-13T03:17:20.206Z,71.21
2023-01-13T03:19:59.393Z,71.52
2023-01-13T03:22:42.848Z,71.81
2023-01-13T03:25:26.168Z,71.79
2023-01-13T03:28:01.545Z,72.34
2023-01-13T03:30:42.842Z,73.13
2023-01-13T03:33:41.572Z,72.70
2023-01-13T03:36:10.764Z,73.17
2023-01-13T03:38:42.827Z,72.92
2023-01-13T03:41:15.790Z,72.94
2023-01-13T03:44:22.101Z,73.38
2023-01-13T03:47:12.852Z,72.99
2023-01-13T03:49:48.546Z,73.77
2023-01-13T03:52:36.474Z,73.63
2023-01-13T03:55:20.861Z,73.66
2023-01-13T03:57:55.359Z,73.42
2023-01-13T04:00:27.983Z,73.51
2023-01-13T04:03:05.539Z,73.69
2023-01-13T04:05:38.427Z,73.84
2023-01-13T04:08:18.743Z,74.22
2023-01-13T04:10:53.583Z,73.64
2023-01-13T04:13:23.452Z,73.93
2023-01-13T04:15:50.271Z,74.03
2023-01-13T04:18:27.403Z,73.62
2023-01-13T04:20:56.808Z,73.41
2023-01-13T04:23:24.303Z,74.21
2023-01-13T04:25:51.864Z,73.61
2023-01-13T04:28:19.148Z,73.25
2023-01-13T04:30:46.671Z,74.12
2023-01-13T04:33:14.677Z,73.45
2023-01-13T04:35:41.675Z,73.29
2023-01-13T04:38:11.880Z,73.77
2023-01-13T04:40:39.246Z,73.02
2023-01-13T04:43:06.128Z,73.94
2023-01-13T04:45:33.012Z,74.14
2023-01-13T04:47:59.791Z,73.32
2023-01-13T04:50:26.682Z,73.25
2023-01-13T04:52:56.783Z,73.08
2023-01-13T04:55:24.791Z,72.61
2023-01-13T04:57:51.595Z,72.85
2023-01-13T05:00:20.772Z,73.30
2023-01-13T05:02:49.787Z,72.94
2023-01-13T05:05:16.368Z,72.21
2023-01-13T05:07:42.868Z,73.01
2023-01-13T05:10:09.997Z,72.89
2023-01-13T05:12:55.029Z,73.40
2023-01-13T05:15:39.976Z,73.33
2023-01-13T05:18:06.948Z,72.84
2023-01-13T05:20:33.577Z,73.16
2023-01-13T05:23:18.380Z,72.69
2023-01-13T05:25:48.113Z,72.15
2023-01-13T05:28:15.467Z,72.21
2023-01-13T05:30:45.919Z,73.83
2023-01-13T05:33:15.937Z,72.63
2023-01-13T05:35:44.165Z,72.09
2023-01-13T05:38:11.151Z,72.92
2023-01-13T05:40:59.040Z,73.17
2023-01-13T05:43:27.061Z,73.51
2023-01-13T05:46:02.376Z,72.59
2023-01-13T05:48:30.730Z,72.42
2023-01-13T05:50:57.671Z,73.46
2023-01-13T05:53:24.912Z,73.09
2023-01-13T05:55:52.314Z,72.96
2023-01-13T05:58:20.940Z,72.71
2023-01-13T06:00:48.185Z,73.05
2023-01-13T06:03:16.118Z,73.71
2023-01-13T06:05:42.928Z,73.42
2023-01-13T06:08:09.482Z,73.16
2023-01-13T06:10:36.438Z,73.71
2023-01-13T06:13:04.029Z,74.71
2023-01-13T06:15:31.072Z,74.68
2023-01-13T06:17:57.720Z,74.69
2023-01-13T06:20:24.845Z,74.48
2023-01-13T06:22:54.044Z,74.07
2023-01-13T06:25:36.024Z,74.57
2023-01-13T06:28:03.467Z,75.23
2023-01-13T06:30:36.808Z,74.84
2023-01-13T06:33:07.921Z,74.85
2023-01-13T06:35:36.108Z,75.01
2023-01-13T06:38:07.430Z,75.01
2023-01-13T06:40:34.863Z,74.89
2023-01-13T06:43:16.392Z,75.04
2023-01-13T06:45:52.529Z,73.41
2023-01-13T06:48:25.906Z,73.59
2023-01-13T06:50:52.497Z,73.26
2023-01-13T06:53:19.788Z,73.43
2023-01-13T06:55:46.439Z,72.72
2023-01-13T06:58:13.071Z,71.71
2023-01-13T07:00:39.753Z,69.83
2023-01-13T07:03:12.060Z,69.49
2023-01-13T07:05:39.717Z,70.41
2023-01-13T07:08:07.327Z,70.02
2023-01-13T07:10:35.273Z,71.23
2023-01-13T07:13:21.526Z,70.58
2023-01-13T07:16:03.278Z,70.98
2023-01-13T07:18:32.138Z,71.43
2023-01-13T07:21:07.214Z,71.76
2023-01-13T07:23:36.022Z,70.39
2023-01-13T07:26:02.848Z,70.86
2023-01-13T07:28:30.662Z,71.10
2023-01-13T07:30:57.660Z,70.31
2023-01-13T07:33:24.705Z,70.94
2023-01-13T07:36:02.567Z,70.00
2023-01-13T07:38:30.628Z,69.46
2023-01-13T07:40:57.335Z,69.15
2023-01-13T07:43:33.044Z,69.68
2023-01-13T07:46:02.349Z,70.07
2023-01-13T07:48:29.438Z,70.24
2023-01-13T07:50:56.120Z,69.59
2023-01-13T07:53:25.183Z,69.21
2023-01-13T07:55:56.859Z,69.29
2023-01-13T07:58:24.563Z,69.29
2023-01-13T08:00:52.041Z,70.09
2023-01-13T08:03:18.955Z,69.88
2023-01-13T08:05:45.773Z,69.81
2023-01-13T08:08:12.417Z,69.34
2023-01-13T08:10:39.037Z,68.98
2023-01-13T08:13:17.702Z,69.01
2023-01-13T08:15:45.699Z,68.53
2023-01-13T08:18:13.360Z,68.42
2023-01-13T08:20:39.947Z,68.32
2023-01-13T08:23:07.502Z,67.79
2023-01-13T08:25:34.269Z,68.04
2023-01-13T08:28:00.902Z,67.96
2023-01-13T08:30:28.511Z,66.69
2023-01-13T08:32:55.445Z,66.87
2023-01-13T08:35:22.619Z,65.87
2023-01-13T08:37:49.879Z,64.62
2023-01-13T08:40:17.878Z,64.68
2023-01-13T08:42:45.909Z,64.32
2023-01-13T08:45:14.215Z,64.51
2023-01-13T08:47:40.990Z,65.69
2023-01-13T08:50:08.980Z,65.53
2023-01-13T08:52:35.724Z,66.67
2023-01-13T08:55:02.576Z,65.75
2023-01-13T08:57:29.516Z,64.59
2023-01-13T08:59:56.215Z,64.16
2023-01-13T09:02:24.308Z,64.51
2023-01-13T09:04:51.953Z,63.21
2023-01-13T09:07:18.761Z,63.66
2023-01-13T09:09:45.517Z,62.90
2023-01-13T09:12:32.693Z,62.71
2023-01-13T09:15:00.143Z,62.28
2023-01-13T09:17:27.508Z,62.10
2023-01-13T09:19:54.155Z,60.77
2023-01-13T09:22:21.880Z,61.95
2023-01-13T09:24:48.555Z,60.84
2023-01-13T09:27:15.714Z,60.50
2023-01-13T09:29:42.864Z,60.92
2023-01-13T09:32:14.047Z,60.43
2023-01-13T09:35:00.174Z,59.98
2023-01-13T09:37:35.803Z,59.21
2023-01-13T09:40:22.573Z,59.32
2023-01-13T09:43:33.535Z,57.78
2023-01-13T09:46:06.504Z,57.95
2023-01-13T09:48:52.056Z,58.43
2023-01-13T09:51:28.660Z,57.75
2023-01-13T09:54:02.947Z,57.44
2023-01-13T09:56:30.015Z,54.83
2023-01-13T09:58:57.626Z,55.27
2023-01-13T10:01:32.503Z,55.41
2023-01-13T10:04:14.014Z,55.54
2023-01-13T10:06:44.533Z,53.88
2023-01-13T10:09:49.560Z,54.25
2023-01-13T10:12:41.753Z,54.30
2023-01-13T10:15:16.557Z,54.20
2023-01-13T10:17:46.285Z,54.03
2023-01-13T10:20:47.183Z,53.62
2023-01-13T10:23:52.428Z,53.73
2023-01-13T10:26:24.990Z,51.85
2023-01-13T10:28:54.766Z,52.58
2023-01-13T10:31:22.625Z,53.50
2023-01-13T10:33:57.629Z,54.47
2023-01-13T10:36:24.352Z,53.14
2023-01-13T10:38:51.022Z,52.65
2023-01-13T10:41:28.230Z,52.63
2023-01-13T10:44:03.499Z,53.31
2023-01-13T10:46:35.879Z,53.80
2023-01-13T10:49:22.974Z,53.39
2023-01-13T10:51:49.545Z,53.71
2023-01-13T10:54:24.425Z,53.09
2023-01-13T10:57:16.025Z,53.54
2023-01-13T10:59:42.620Z,54.12
2023-01-13T11:02:24.309Z,53.75
2023-01-13T11:04:54.623Z,53.55
2023-01-13T11:07:32.545Z,52.99
2023-01-13T11:10:24.055Z,51.14
2023-01-13T11:13:26.070Z,49.75
2023-01-13T11:16:05.276Z,49.58
2023-01-13T11:18:37.745Z,49.56
2023-01-13T11:21:12.621Z,48.00
2023-01-13T11:23:48.870Z,48.19
2023-01-13T11:26:27.006Z,46.27
2023-01-13T11:29:04.344Z,46.64
2023-01-13T11:31:39.859Z,45.38
2023-01-13T11:34:30.042Z,44.60
2023-01-13T11:36:59.120Z,44.71
2023-01-13T11:39:47.561Z,42.75
2023-01-13T11:42:29.911Z,43.38
2023-01-13T11:45:01.861Z,44.13
2023-01-13T11:47:29.204Z,44.00
2023-01-13T11:49:56.226Z,43.82
2023-01-13T11:52:31.955Z,43.51
2023-01-13T11:55:15.252Z,43.23
2023-01-13T11:57:47.991Z,43.86
2023-01-13T12:00:22.815Z,42.99
2023-01-13T12:02:57.947Z,42.95
2023-01-13T12:05:41.211Z,42.67
2023-01-13T12:08:23.496Z,41.96
2023-01-13T12:11:02.357Z,41.67
2023-01-13T12:13:44.811Z,41.65
2023-01-13T12:16:41.847Z,42.08
2023-01-13T12:19:21.833Z,41.72
2023-01-13T12:22:18.660Z,41.91
2023-01-13T12:24:51.744Z,40.85
2023-01-13T12:27:23.629Z,39.62
2023-01-13T12:29:55.355Z,38.96
2023-01-13T12:32:29.106Z,38.59
2023-01-13T12:35:05.229Z,38.95
2023-01-13T12:37:44.781Z,38.33
2023-01-13T12:40:57.381Z,36.95
2023-01-13T12:43:43.007Z,35.21
2023-01-13T12:46:18.824Z,31.89
2023-01-13T12:48:56.991Z,30.00
2023-01-13T12:51:27.495Z,27.97
2023-01-13T12:53:56.271Z,27.80
2023-01-13T12:56:42.312Z,26.57
2023-01-13T12:59:32.590Z,25.04
2023-01-13T13:02:11.976Z,24.30
2023-01-13T13:04:52.025Z,25.72
2023-01-13T13:07:41.502Z,24.82
2023-01-13T13:10:20.786Z,23.21
2023-01-13T13:13:06.058Z,22.59
2023-01-13T13:15:37.026Z,21.88
2023-01-13T13:18:21.887Z,20.84
2023-01-13T13:20:56.300Z,22.05
2023-01-13T13:23:48.150Z,21.42
2023-01-13T13:26:29.784Z,20.80
2023-01-13T13:29:08.442Z,20.76
2023-01-13T13:31:37.817Z,19.73
2023-01-13T13:34:12.535Z,21.08
2023-01-13T13:37:01.507Z,19.96
2023-01-13T13:39:49.895Z,20.45
2023-01-13T13:42:47.109Z,20.49
2023-01-13T13:45:41.416Z,21.01
2023-01-13T13:48:30.460Z,22.08
2023-01-13T13:51:04.029Z,21.57
2023-01-13T13:53:35.607Z,21.89
2023-01-13T13:56:07.479Z,21.09
2023-01-13T13:58:36.981Z,20.57
2023-01-13T14:01:05.051Z,20.64
2023-01-13T14:03:34.885Z,20.28
2023-01-13T14:06:06.764Z,19.94
2023-01-13T14:08:36.677Z,21.27
2023-01-13T14:11:27.703Z,20.70
2023-01-13T14:14:26.388Z,20.99
2023-01-13T14:16:54.959Z,21.17
2023-01-13T14:19:35.409Z,22.30
2023-01-13T14:22:04.704Z,23.35
2023-01-13T14:24:32.134Z,23.84
2023-01-13T14:27:16.171Z,24.09
2023-01-13T14:29:43.387Z,24.17
2023-01-13T14:32:15.323Z,24.48
2023-01-13T14:34:42.121Z,23.71
2023-01-13T14:37:27.578Z,23.65
2023-01-13T14:39:54.254Z,22.28
2023-01-13T14:42:21.652Z,22.91
2023-01-13T14:44:51.785Z,23.93
2023-01-13T14:47:28.055Z,22.17
2023-01-13T14:50:16.072Z,21.89
2023-01-13T14:52:57.200Z,22.10
2023-01-13T14:55:23.834Z,23.29
2023-01-13T14:57:50.541Z,23.97
2023-01-13T15:00:23.655Z,23.26
2023-01-13T15:02:56.408Z,22.86
2023-01-13T15:05:25.722Z,23.40
2023-01-13T15:07:56.343Z,23.46
2023-01-13T15:10:27.735Z,23.26
2023-01-13T15:12:57.701Z,23.93
2023-01-13T15:15:33.792Z,24.02
2023-01-13T15:18:15.752Z,24.15
2023-01-13T15:20:42.889Z,23.88
2023-01-13T15:23:09.673Z,24.44
2023-01-13T15:25:39.060Z,24.72
2023-01-13T15:28:07.475Z,25.74
2023-01-13T15:30:34.376Z,27.06
2023-01-13T15:33:00.957Z,29.28
2023-01-13T15:35:29.130Z,31.52
2023-01-13T15:37:57.513Z,33.92
2023-01-13T15:40:32.342Z,35.47
2023-01-13T15:43:17.745Z,36.24
2023-01-13T15:46:05.093Z,36.83
2023-01-13T15:48:32.955Z,36.75
2023-01-13T15:51:00.553Z,36.97
2023-01-13T15:53:28.313Z,37.45
2023-01-13T15:55:57.743Z,38.77
2023-01-13T15:58:28.416Z,39.78
2023-01-13T16:00:55.590Z,41.61
2023-01-13T16:03:22.374Z,42.35
2023-01-13T16:05:49.200Z,43.29
2023-01-13T16:08:21.347Z,44.34
2023-01-13T16:10:49.045Z,44.84
2023-01-13T16:13:16.179Z,45.82
2023-01-13T16:15:48.862Z,45.70
2023-01-13T16:18:24.600Z,47.11
2023-01-13T16:20:55.286Z,47.00
2023-01-13T16:23:22.926Z,48.19
2023-01-13T16:25:53.872Z,48.43
2023-01-13T16:28:24.343Z,48.86
2023-01-13T16:30:51.581Z,49.52
2023-01-13T16:33:18.240Z,49.65
2023-01-13T16:36:10.807Z,50.07
2023-01-13T16:38:31.471Z,50.54
2023-01-13T16:40:59.261Z,50.65
2023-01-13T16:43:26.021Z,50.05
2023-01-13T16:45:52.693Z,50.56
2023-01-13T16:48:20.113Z,50.74
2023-01-13T16:50:47.442Z,51.54
2023-01-13T16:53:14.061Z,52.18
2023-01-13T16:55:42.294Z,51.88
2023-01-13T16:58:20.586Z,52.33
2023-01-13T17:00:48.077Z,52.45
2023-01-13T17:03:16.195Z,52.20
2023-01-13T17:05:44.856Z,53.66
2023-01-13T17:08:17.731Z,53.91
2023-01-13T17:10:47.366Z,54.16
2023-01-13T17:13:16.658Z,54.59
2023-01-13T17:15:45.098Z,54.71
2023-01-13T17:18:13.249Z,55.82
2023-01-13T17:20:40.060Z,55.65
2023-01-13T17:23:06.600Z,56.23
2023-01-13T17:25:33.228Z,56.21
2023-01-13T17:27:59.801Z,55.41
2023-01-13T17:30:26.329Z,55.99
2023-01-13T17:32:52.893Z,56.18
2023-01-13T17:35:24.557Z,56.28
2023-01-13T17:37:52.337Z,56.09
2023-01-13T17:40:18.893Z,56.02
2023-01-13T17:42:45.502Z,57.51
2023-01-13T17:45:12.342Z,57.51
2023-01-13T17:47:38.994Z,56.79
2023-01-13T17:50:06.096Z,56.99
2023-01-13T17:52:33.984Z,56.88
2023-01-13T17:55:00.532Z,57.45
2023-01-13T17:57:27.212Z,58.12
2023-01-13T17:59:53.804Z,57.86
2023-01-13T18:02:20.526Z,57.74
2023-01-13T18:04:47.212Z,58.99
2023-01-13T18:07:13.790Z,58.70
2023-01-13T18:09:40.458Z,58.66
2023-01-13T18:12:07.228Z,59.94
2023-01-13T18:14:34.647Z,59.29
2023-01-13T18:17:01.259Z,60.25
2023-01-13T18:19:46.592Z,59.70
2023-01-13T18:22:32.611Z,59.89
2023-01-13T18:25:18.120Z,60.69
2023-01-13T18:27:44.691Z,61.01
2023-01-13T18:30:12.585Z,60.92
2023-01-13T18:32:39.368Z,60.88
2023-01-13T18:35:10.092Z,61.28
2023-01-13T18:37:39.984Z,60.96
2023-01-13T18:40:09.916Z,61.47
2023-01-13T18:42:53.582Z,60.89
2023-01-13T18:45:31.307Z,61.10
2023-01-13T18:48:00.435Z,61.27
2023-01-13T18:50:28.115Z,61.57
2023-01-13T18:52:55.514Z,61.17
2023-01-13T18:55:22.222Z,61.93
2023-01-13T18:57:49.592Z,61.41
2023-01-13T19:00:21.946Z,62.66
2023-01-13T19:05:34.431Z,62.04
2023-01-13T19:08:03.717Z,63.03
2023-01-13T19:10:32.335Z,62.58
2023-01-13T19:12:59.314Z,63.22
2023-01-13T19:15:26.154Z,63.35
2023-01-13T19:17:52.844Z,63.39
2023-01-13T19:20:20.081Z,63.01
2023-01-13T19:22:53.736Z,63.37
2023-01-13T19:25:20.384Z,63.67
2023-01-13T19:27:46.974Z,64.18
2023-01-13T19:30:14.095Z,64.40
2023-01-13T19:32:40.693Z,65.20
2023-01-13T19:35:07.858Z,65.33
2023-01-13T19:37:36.657Z,64.65
2023-01-13T19:40:09.143Z,65.30
2023-01-13T19:42:54.343Z,65.21
2023-01-13T19:45:26.979Z,65.45
2023-01-13T19:47:54.561Z,65.06
2023-01-13T19:50:21.331Z,65.31
2023-01-13T19:52:47.938Z,65.31
2023-01-13T19:55:14.546Z,65.94
2023-01-13T19:57:41.324Z,65.25
2023-01-13T20:00:10.294Z,65.64
2023-01-13T20:02:45.175Z,64.77
2023-01-13T20:05:15.150Z,65.26
2023-01-13T20:07:41.804Z,65.39
2023-01-13T20:10:08.898Z,66.61
2023-01-13T20:12:35.582Z,67.14
2023-01-13T20:15:02.221Z,67.73
2023-01-13T20:17:30.719Z,68.02
2023-01-13T20:19:59.012Z,67.07
2023-01-13T20:22:25.527Z,67.03
2023-01-13T20:24:55.167Z,66.77
2023-01-13T20:27:23.973Z,67.06
2023-01-13T20:29:51.189Z,67.12
2023-01-13T20:32:17.833Z,66.74
2023-01-13T20:34:44.460Z,66.92
2023-01-13T20:37:11.146Z,67.77
2023-01-13T20:39:37.835Z,67.53
2023-01-13T20:42:23.311Z,67.37
2023-01-13T20:44:50.131Z,68.17
2023-01-13T20:47:16.775Z,67.91
2023-01-13T20:49:43.410Z,68.48
2023-01-13T20:52:10.641Z,68.48
2023-01-13T20:54:38.863Z,68.72
2023-01-13T20:57:06.744Z,68.50
2023-01-13T20:59:33.645Z,68.04
2023-01-13T21:02:00.797Z,68.09
2023-01-13T21:04:28.450Z,68.46
2023-01-13T21:06:56.382Z,68.61
2023-01-13T21:09:24.419Z,68.70
2023-01-13T21:12:09.839Z,69.05
2023-01-13T21:14:55.840Z,68.64
2023-01-13T21:17:41.571Z,68.82
2023-01-13T21:20:11.005Z,69.26
2023-01-13T21:22:39.302Z,69.38
2023-01-13T21:25:07.143Z,69.33
2023-01-13T21:27:34.687Z,68.89
2023-01-13T21:30:01.410Z,69.77
2023-01-13T21:32:28.343Z,69.25
2023-01-13T21:34:54.918Z,69.48
2023-01-13T21:37:22.270Z,69.16
2023-01-13T21:39:49.194Z,69.68
2023-01-13T21:42:35.560Z,69.34
2023-01-13T21:45:21.923Z,69.04
2023-01-13T21:47:48.787Z,70.26
2023-01-13T21:50:20.957Z,70.88
2023-01-13T21:52:52.625Z,70.62
2023-01-13T21:55:23.868Z,70.78
2023-01-13T21:57:56.974Z,70.97
2023-01-13T22:00:26.212Z,71.00
2023-01-13T22:02:53.671Z,71.07
2023-01-13T22:05:22.796Z,71.37
2023-01-13T22:07:49.985Z,71.65
2023-01-13T22:10:19.531Z,72.06
2023-01-13T22:12:47.469Z,72.39
2023-01-13T22:15:16.343Z,71.38
2023-01-13T22:17:43.124Z,71.56
2023-01-13T22:20:10.892Z,71.73
2023-01-13T22:22:37.707Z,72.09
2023-01-13T22:25:07.139Z,72.36
2023-01-13T22:27:40.671Z,72.62
2023-01-13T22:30:11.371Z,72.46
2023-01-13T22:32:41.098Z,71.98
2023-01-13T22:35:10.201Z,72.37
2023-01-13T22:37:37.362Z,72.63
2023-01-13T22:40:05.043Z,72.78
2023-01-13T22:42:31.674Z,73.00
2023-01-13T22:44:58.233Z,73.35
2023-01-13T22:47:24.831Z,73.42
2023-01-13T22:49:51.403Z,72.63
2023-01-13T22:52:18.089Z,71.68
2023-01-13T22:54:44.787Z,72.28
2023-01-13T22:57:11.352Z,72.28
2023-01-13T22:59:38.058Z,72.55
2023-01-13T23:02:04.607Z,72.72
2023-01-13T23:04:31.204Z,73.06
2023-01-13T23:06:57.843Z,72.24
2023-01-13T23:09:24.527Z,72.85
2023-01-13T23:11:51.384Z,71.99
2023-01-13T23:14:18.132Z,71.80
2023-01-13T23:16:46.865Z,72.35
2023-01-13T23:19:13.834Z,72.71
2023-01-13T23:21:40.744Z,72.95
2023-01-13T23:24:07.651Z,73.31
2023-01-13T23:26:35.550Z,72.52
2023-01-13T23:29:05.614Z,73.04
2023-01-13T23:31:33.210Z,73.00
2023-01-13T23:34:00.383Z,73.37
2023-01-13T23:36:28.235Z,73.12
2023-01-13T23:38:55.223Z,73.38
2023-01-13T23:41:25.151Z,73.63
2023-01-13T23:43:59.997Z,73.38
2023-01-13T23:46:28.719Z,73.67
2023-01-13T23:48:55.615Z,73.81
2023-01-13T23:51:23.410Z,74.03
2023-01-13T23:53:50.807Z,73.49
2023-01-13T23:56:20.683Z,74.00
2023-01-13T23:58:48.349Z,74.75
